Time;durP1;ratioP1;P1;durP2;ratioP2;P2;SDS_P1;SDS_P2;PMS_P1;PMS_P2;Temp;Humidity;BMP_temperature;BMP_pressure;BME280_temperature;BME280_humidity;BME280_pressure;Samples;Min_cycle;Max_cycle;Signal;HPM_P1;HPM_P2
2023/07/09 00:01:22;;;;;;;7.90;6.40;;;;;;;13.11;80.11;98341.84;106542;1277;22669;-78
2023/07/09 00:03:51;;;;;;;7.60;6.20;;;;;;;13.12;80.26;98345.40;106547;1277;24286;-76
2023/07/09 00:06:18;;;;;;;7.30;6.10;;;;;;;13.11;80.23;98348.86;106545;1277;25468;-75
2023/07/09 00:08:49;;;;;;;6.60;5.60;;;;;;;13.15;79.94;98346.19;106655;1277;22591;-77
2023/07/09 00:11:16;;;;;;;9.30;7.30;;;;;;;13.16;79.58;98343.84;106611;1277;22626;-75
2023/07/09 00:13:43;;;;;;;8.00;6.20;;;;;;;13.12;79.16;98345.41;106528;1278;22621;-75
2023/07/09 00:16:14;;;;;;;7.70;5.60;;;;;;;13.08;79.43;98345.76;106590;1277;25513;-75
2023/07/09 00:18:40;;;;;;;6.90;5.60;;;;;;;13.03;79.65;98345.85;106577;1277;25419;-75
2023/07/09 00:21:07;;;;;;;7.50;5.70;;;;;;;13.00;80.02;98343.27;106517;1278;24309;-75
2023/07/09 00:23:34;;;;;;;6.90;5.70;;;;;;;12.98;79.81;98339.79;106698;1277;25217;-75
2023/07/09 00:26:03;;;;;;;9.20;5.70;;;;;;;12.97;79.92;98340.73;106849;1277;22909;-75
2023/07/09 00:28:30;;;;;;;6.40;5.50;;;;;;;12.92;80.02;98342.56;106792;1272;25395;-76
2023/07/09 00:30:57;;;;;;;5.90;5.20;;;;;;;12.90;80.00;98345.92;106631;1277;22529;-76
2023/07/09 00:33:31;;;;;;;7.60;5.30;;;;;;;12.91;79.97;98347.02;106705;1278;22516;-76
2023/07/09 00:35:58;;;;;;;6.90;6.10;;;;;;;12.90;79.69;98351.92;106633;1277;24234;-75
2023/07/09 00:38:26;;;;;;;9.10;7.30;;;;;;;12.88;79.53;98354.02;106562;1277;25315;-75
2023/07/09 00:41:04;;;;;;;8.90;6.30;;;;;;;12.85;79.34;98349.88;106605;1277;24339;-75
2023/07/09 00:43:37;;;;;;;7.50;6.00;;;;;;;12.83;79.42;98353.36;106601;1277;23099;-76
2023/07/09 00:46:36;;;;;;;7.70;5.90;;;;;;;12.83;79.28;98351.64;106535;1265;22583;-75
2023/07/09 00:49:08;;;;;;;6.80;5.10;;;;;;;12.81;79.71;98351.36;106523;1278;22974;-75
2023/07/09 00:51:41;;;;;;;9.10;5.70;;;;;;;12.78;80.57;98352.12;106643;1278;25387;-76
2023/07/09 00:54:38;;;;;;;7.70;6.20;;;;;;;12.70;80.89;98348.92;106562;1266;25066;-75
2023/07/09 00:57:12;;;;;;;6.40;5.60;;;;;;;12.64;80.61;98346.21;106567;1277;25376;-75
2023/07/09 00:59:40;;;;;;;8.00;6.20;;;;;;;12.61;81.08;98347.54;106587;1277;25301;-74
2023/07/09 01:02:08;;;;;;;6.40;5.60;;;;;;;12.53;81.50;98342.89;106554;1277;24295;-75
2023/07/09 01:04:36;;;;;;;6.70;5.60;;;;;;;12.49;81.98;98346.09;106649;1277;22534;-76
2023/07/09 01:07:03;;;;;;;7.40;6.30;;;;;;;12.46;82.14;98342.15;106638;1277;22557;-76
2023/07/09 01:09:30;;;;;;;8.20;6.40;;;;;;;12.43;82.06;98335.19;106526;1277;22517;-75
2023/07/09 01:12:00;;;;;;;7.30;6.30;;;;;;;12.44;82.22;98337.48;106545;1277;22550;-76
2023/07/09 01:14:27;;;;;;;7.50;5.90;;;;;;;12.43;82.32;98334.52;106621;1277;22533;-76
2023/07/09 01:17:01;;;;;;;7.80;6.90;;;;;;;12.42;81.98;98336.33;106698;1256;24182;-76
2023/07/09 01:19:40;;;;;;;8.40;6.50;;;;;;;12.40;82.38;98334.38;106736;1277;22537;-76
2023/07/09 01:22:06;;;;;;;8.70;7.00;;;;;;;12.36;82.71;98334.08;106445;1277;22550;-76
2023/07/09 01:24:54;;;;;;;8.90;7.20;;;;;;;12.34;82.71;98337.20;106532;1277;22527;-76
2023/07/09 01:27:26;;;;;;;7.40;6.60;;;;;;;12.33;82.82;98336.52;106556;1277;22527;-76
2023/07/09 01:29:55;;;;;;;9.90;7.00;;;;;;;12.34;82.77;98338.67;106570;1277;22524;-75
2023/07/09 01:32:22;;;;;;;8.40;7.00;;;;;;;12.33;82.70;98334.19;106607;1277;22579;-75
2023/07/09 01:34:53;;;;;;;9.60;6.60;;;;;;;12.33;82.75;98333.27;106561;1277;25478;-75
2023/07/09 01:37:24;;;;;;;7.60;6.30;;;;;;;12.32;82.99;98334.39;106728;1278;22612;-76
2023/07/09 01:39:52;;;;;;;8.20;7.00;;;;;;;12.31;82.97;98337.48;106816;1277;26516;-76
2023/07/09 01:42:22;;;;;;;8.90;7.00;;;;;;;12.35;83.03;98336.15;106674;1277;22527;-76
2023/07/09 01:44:51;;;;;;;8.10;7.30;;;;;;;12.40;82.75;98339.25;106692;1277;26150;-75
2023/07/09 01:47:18;;;;;;;8.00;6.20;;;;;;;12.39;82.85;98339.05;106621;1277;22530;-76
2023/07/09 01:49:48;;;;;;;6.80;6.10;;;;;;;12.39;82.83;98335.27;106653;1277;24278;-76
2023/07/09 01:52:18;;;;;;;8.40;5.80;;;;;;;12.45;82.66;98335.90;106627;1277;24347;-75
2023/07/09 01:54:49;;;;;;;6.90;5.90;;;;;;;12.45;83.49;98338.33;106722;1277;25349;-76
2023/07/09 01:57:19;;;;;;;7.70;6.80;;;;;;;12.41;83.34;98341.98;106436;1277;22643;-76
2023/07/09 01:59:46;;;;;;;7.50;6.40;;;;;;;12.39;83.64;98342.19;106410;1277;22664;-76
2023/07/09 02:02:18;;;;;;;8.60;6.70;;;;;;;12.34;83.59;98341.57;106422;1277;25337;-76
2023/07/09 02:04:56;;;;;;;9.10;7.00;;;;;;;12.29;83.72;98339.05;106674;1277;22586;-76
2023/07/09 02:07:24;;;;;;;8.20;6.70;;;;;;;12.26;83.81;98341.72;106423;1278;22542;-76
2023/07/09 02:09:51;;;;;;;7.30;6.50;;;;;;;12.24;83.46;98343.16;106642;1277;22646;-76
2023/07/09 02:12:18;;;;;;;8.10;6.70;;;;;;;12.21;84.22;98346.02;106660;1277;22541;-76
2023/07/09 02:14:45;;;;;;;8.20;7.20;;;;;;;12.17;84.61;98349.16;106536;1277;24647;-76
2023/07/09 02:17:14;;;;;;;8.80;7.90;;;;;;;12.14;84.93;98350.97;106679;1277;22541;-76
2023/07/09 02:19:42;;;;;;;12.00;7.40;;;;;;;12.08;84.90;98352.51;106745;1277;24247;-76
2023/07/09 02:22:10;;;;;;;12.80;8.40;;;;;;;12.04;85.07;98356.53;106671;1277;22538;-76
2023/07/09 02:24:37;;;;;;;10.20;7.70;;;;;;;12.01;85.13;98357.18;106664;1278;22632;-76
2023/07/09 02:27:07;;;;;;;9.60;7.90;;;;;;;12.04;85.50;98357.35;106609;1278;25266;-76
2023/07/09 02:29:34;;;;;;;12.00;7.70;;;;;;;12.10;85.60;98360.54;106682;1277;22699;-76
2023/07/09 02:32:01;;;;;;;8.70;7.70;;;;;;;12.13;85.81;98361.29;106652;1278;22537;-76
2023/07/09 02:34:30;;;;;;;10.50;8.10;;;;;;;12.12;86.26;98365.79;106693;1277;22588;-76
2023/07/09 02:36:58;;;;;;;9.60;8.30;;;;;;;12.08;85.96;98364.37;106452;1277;23483;-76
2023/07/09 02:39:27;;;;;;;12.20;7.90;;;;;;;12.05;86.79;98366.08;106511;1278;22642;-76
2023/07/09 02:41:54;;;;;;;10.90;8.40;;;;;;;12.00;87.28;98370.20;106471;1277;24254;-76
2023/07/09 02:44:20;;;;;;;14.50;9.10;;;;;;;11.98;87.48;98372.08;106473;1277;22535;-75
2023/07/09 02:46:47;;;;;;;10.20;8.70;;;;;;;11.99;87.56;98373.52;106539;1277;22585;-76
2023/07/09 02:49:14;;;;;;;10.70;9.10;;;;;;;12.00;87.69;98373.45;106516;1277;22544;-75
2023/07/09 02:51:42;;;;;;;11.00;9.00;;;;;;;12.03;87.83;98373.73;106564;1277;25107;-76
2023/07/09 02:54:09;;;;;;;10.80;9.20;;;;;;;12.07;88.17;98375.94;106681;1277;25310;-75
2023/07/09 02:56:35;;;;;;;12.30;8.80;;;;;;;12.09;88.37;98373.95;106523;1272;22597;-76
2023/07/09 02:59:03;;;;;;;10.10;9.10;;;;;;;12.09;88.37;98377.46;106464;1277;24367;-76
2023/07/09 03:01:30;;;;;;;11.90;8.90;;;;;;;12.09;88.27;98378.54;106430;1277;22650;-75
2023/07/09 03:03:59;;;;;;;10.50;9.00;;;;;;;12.09;88.49;98382.66;106514;1278;23069;-75
2023/07/09 03:06:27;;;;;;;11.10;9.40;;;;;;;12.12;88.79;98385.04;106546;1277;25305;-76
2023/07/09 03:08:54;;;;;;;11.10;8.80;;;;;;;12.16;88.88;98384.59;106493;1277;22535;-75
2023/07/09 03:11:21;;;;;;;11.00;9.90;;;;;;;12.19;88.72;98386.02;106558;1277;24199;-75
2023/07/09 03:13:48;;;;;;;12.40;9.40;;;;;;;12.21;88.66;98382.98;106585;1278;26793;-75
2023/07/09 03:16:16;;;;;;;9.80;8.70;;;;;;;12.22;88.27;98381.77;106577;1277;24379;-76
2023/07/09 03:18:43;;;;;;;14.40;9.30;;;;;;;12.25;88.77;98379.57;106679;1277;25409;-75
2023/07/09 03:21:10;;;;;;;10.10;8.80;;;;;;;12.28;89.45;98385.92;106812;1278;25301;-75
2023/07/09 03:23:36;;;;;;;10.70;8.80;;;;;;;12.31;89.44;98383.67;106598;1277;22522;-79
2023/07/09 03:26:04;;;;;;;11.80;10.60;;;;;;;12.33;89.59;98384.66;106537;1277;24219;-75
2023/07/09 03:28:32;;;;;;;11.40;9.10;;;;;;;12.34;89.75;98382.63;106543;1277;23612;-76
2023/07/09 03:31:00;;;;;;;10.70;9.60;;;;;;;12.37;90.16;98383.35;106673;1278;25223;-76
2023/07/09 03:33:26;;;;;;;12.80;9.70;;;;;;;12.42;90.31;98383.52;106712;1277;24244;-76
2023/07/09 03:35:53;;;;;;;11.20;9.60;;;;;;;12.47;90.31;98385.91;106718;1278;22540;-75
2023/07/09 03:38:20;;;;;;;10.10;9.20;;;;;;;12.49;90.72;98386.36;106703;1277;24189;-76
2023/07/09 03:40:54;;;;;;;11.30;10.00;;;;;;;12.53;90.66;98385.49;106732;1277;22562;-76
2023/07/09 03:43:22;;;;;;;21.40;10.40;;;;;;;12.59;90.49;98384.89;106690;1264;22639;-77
2023/07/09 03:45:50;;;;;;;13.20;9.60;;;;;;;12.68;90.37;98383.88;106703;1278;25132;-76
2023/07/09 03:48:19;;;;;;;12.90;9.60;;;;;;;12.82;89.64;98377.20;106552;1266;24182;-75
2023/07/09 03:50:47;;;;;;;10.90;9.00;;;;;;;12.94;89.73;98374.95;106652;1277;25428;-74
2023/07/09 03:53:15;;;;;;;15.70;9.80;;;;;;;13.01;90.08;98377.88;106679;1277;22799;-74
2023/07/09 03:55:45;;;;;;;9.70;8.70;;;;;;;13.07;90.55;98378.08;106686;1277;22544;-75
2023/07/09 03:58:11;;;;;;;13.10;9.20;;;;;;;13.14;90.67;98378.74;106725;1277;22550;-76
2023/07/09 04:00:38;;;;;;;10.90;8.90;;;;;;;13.23;90.75;98381.86;106680;1277;22659;-75
2023/07/09 04:03:08;;;;;;;9.80;8.80;;;;;;;13.32;90.64;98380.92;106653;1278;25415;-76
2023/07/09 04:05:35;;;;;;;10.20;9.20;;;;;;;13.43;90.78;98381.06;106707;1277;22543;-76
2023/07/09 04:08:01;;;;;;;11.00;9.90;;;;;;;13.56;90.67;98378.70;106620;1277;25271;-76
2023/07/09 04:10:28;;;;;;;10.30;9.20;;;;;;;13.69;90.36;98382.15;106680;1278;22526;-75
2023/07/09 04:12:55;;;;;;;11.80;9.80;;;;;;;13.80;90.25;98383.27;106697;1278;24172;-75
2023/07/09 04:15:21;;;;;;;11.10;9.60;;;;;;;13.90;90.55;98383.33;106708;1277;25388;-75
2023/07/09 04:17:48;;;;;;;11.30;10.10;;;;;;;14.00;90.53;98383.65;106700;1277;22827;-76
2023/07/09 04:20:15;;;;;;;10.70;9.30;;;;;;;14.15;90.33;98381.18;106727;1277;25501;-76
2023/07/09 04:22:42;;;;;;;10.50;9.00;;;;;;;14.30;90.23;98382.52;106690;1277;22579;-76
2023/07/09 04:25:11;;;;;;;11.60;10.10;;;;;;;14.48;90.25;98380.77;106691;1278;22540;-75
2023/07/09 04:27:38;;;;;;;11.50;10.30;;;;;;;14.66;90.13;98379.70;106731;1278;24669;-75
2023/07/09 04:30:14;;;;;;;10.60;9.20;;;;;;;14.82;89.97;98380.82;106702;1278;23664;-75
2023/07/09 04:32:43;;;;;;;12.30;10.20;;;;;;;15.03;89.96;98380.62;106693;1267;22546;-76
2023/07/09 04:35:11;;;;;;;13.50;10.60;;;;;;;15.24;89.72;98379.98;106549;1277;24350;-76
2023/07/09 04:37:39;;;;;;;12.30;11.00;;;;;;;15.47;89.56;98379.02;106602;1278;22788;-76
2023/07/09 04:40:10;;;;;;;11.30;10.20;;;;;;;15.69;89.36;98375.20;106552;1278;24229;-76
2023/07/09 04:42:38;;;;;;;13.10;10.10;;;;;;;15.90;89.04;98376.22;106539;1259;22597;-76
2023/07/09 04:45:07;;;;;;;12.70;10.70;;;;;;;16.10;88.38;98379.95;106484;1277;182604;-75
2023/07/09 04:47:33;;;;;;;15.50;9.80;;;;;;;16.29;88.32;98385.49;106521;1277;22545;-75
2023/07/09 04:50:02;;;;;;;11.40;10.00;;;;;;;16.50;87.83;98382.23;106580;1277;25281;-75
2023/07/09 04:52:30;;;;;;;11.50;10.10;;;;;;;16.69;87.39;98380.75;106557;1277;22599;-76
2023/07/09 04:54:57;;;;;;;10.90;9.80;;;;;;;16.86;87.00;98385.52;106598;1277;24224;-75
2023/07/09 04:57:25;;;;;;;12.80;10.60;;;;;;;17.01;86.56;98384.70;106547;1278;22545;-76
2023/07/09 04:59:52;;;;;;;11.90;10.00;;;;;;;17.14;86.29;98387.02;106605;1254;25499;-76
2023/07/09 05:02:19;;;;;;;11.10;10.00;;;;;;;17.28;85.88;98387.38;106588;1278;22639;-76
2023/07/09 05:04:45;;;;;;;13.60;9.60;;;;;;;17.40;84.37;98388.32;106568;1277;25359;-75
2023/07/09 05:07:12;;;;;;;34.30;11.60;;;;;;;17.50;83.57;98388.60;106595;1256;24229;-75
2023/07/09 05:09:39;;;;;;;13.20;10.50;;;;;;;17.62;82.89;98389.50;106552;1278;22788;-75
2023/07/09 05:12:07;;;;;;;12.40;11.00;;;;;;;17.72;82.13;98384.58;106594;1277;22528;-76
2023/07/09 05:14:34;;;;;;;12.80;10.60;;;;;;;17.81;81.99;98388.29;106592;1277;24566;-76
2023/07/09 05:17:00;;;;;;;13.30;11.10;;;;;;;17.92;82.18;98386.02;106585;1278;22584;-76
2023/07/09 05:19:27;;;;;;;12.10;10.40;;;;;;;18.01;81.25;98387.04;106586;1254;25502;-76
2023/07/09 05:21:54;;;;;;;14.10;10.20;;;;;;;18.09;80.97;98391.86;106578;1278;23131;-77
2023/07/09 05:24:20;;;;;;;10.70;9.60;;;;;;;18.17;79.10;98396.96;106589;1278;22652;-76
2023/07/09 05:26:47;;;;;;;13.50;10.30;;;;;;;18.25;79.43;98395.66;106544;1277;22642;-76
2023/07/09 05:29:13;;;;;;;12.50;9.90;;;;;;;18.33;76.63;98397.66;106618;1277;25301;-76
2023/07/09 05:31:41;;;;;;;11.50;9.80;;;;;;;18.41;77.76;98397.55;106581;1278;22530;-77
2023/07/09 05:34:08;;;;;;;10.70;8.90;;;;;;;18.50;76.90;98401.77;106618;1278;22534;-75
2023/07/09 05:36:35;;;;;;;10.60;9.30;;;;;;;18.59;76.48;98404.55;106520;1278;24967;-75
2023/07/09 05:39:01;;;;;;;10.20;9.00;;;;;;;18.69;76.04;98402.74;106528;1278;22552;-76
2023/07/09 05:41:28;;;;;;;10.90;8.50;;;;;;;18.74;74.84;98410.83;106587;1278;23911;-76
2023/07/09 05:43:54;;;;;;;9.80;8.50;;;;;;;18.81;73.87;98413.89;106590;1278;24200;-77
2023/07/09 05:46:30;;;;;;;11.80;9.10;;;;;;;18.91;74.99;98413.19;106577;1256;25473;-77
2023/07/09 05:48:57;;;;;;;9.00;8.10;;;;;;;19.02;74.03;98417.67;106376;1279;24195;-76
2023/07/09 05:51:26;;;;;;;11.20;8.70;;;;;;;19.11;73.62;98417.55;106642;1257;22528;-77
2023/07/09 05:53:52;;;;;;;12.50;8.20;;;;;;;19.17;72.00;98419.56;106708;1278;22540;-76
2023/07/09 05:56:19;;;;;;;11.00;8.30;;;;;;;19.23;70.52;98420.91;106497;1277;22569;-75
2023/07/09 05:58:46;;;;;;;9.70;8.20;;;;;;;19.30;70.82;98420.73;106722;1277;24188;-75
2023/07/09 06:01:13;;;;;;;9.00;8.10;;;;;;;19.40;70.38;98421.05;106609;1278;24261;-75
2023/07/09 06:03:40;;;;;;;9.80;8.50;;;;;;;19.48;70.44;98416.59;106692;1277;22829;-76
2023/07/09 06:06:07;;;;;;;8.90;7.60;;;;;;;19.59;69.74;98415.48;106581;1278;22547;-76
2023/07/09 06:08:33;;;;;;;9.10;7.80;;;;;;;19.71;69.90;98416.98;106652;1278;25415;-76
2023/07/09 06:11:03;;;;;;;9.30;7.50;;;;;;;19.82;69.34;98412.83;106786;1278;23194;-77
2023/07/09 06:13:31;;;;;;;9.90;7.40;;;;;;;19.92;69.36;98414.07;106884;1277;22582;-76
2023/07/09 06:16:00;;;;;;;8.70;7.60;;;;;;;20.05;68.59;98419.65;106786;1263;22710;-76
2023/07/09 06:18:30;;;;;;;10.00;8.30;;;;;;;20.15;67.62;98421.52;106638;1278;25334;-76
2023/07/09 06:21:00;;;;;;;8.90;7.20;;;;;;;20.25;67.72;98419.48;106722;1277;23425;-76
2023/07/09 06:23:28;;;;;;;9.80;7.60;;;;;;;20.37;68.43;98417.48;106777;1277;24200;-77
2023/07/09 06:25:54;;;;;;;9.40;7.70;;;;;;;20.47;66.30;98420.85;106623;1278;24343;-76
2023/07/09 06:28:23;;;;;;;12.90;7.30;;;;;;;20.54;67.14;98416.69;106486;1278;22552;-76
2023/07/09 06:30:50;;;;;;;7.60;6.50;;;;;;;20.68;65.65;98417.52;106619;1278;22539;-76
2023/07/09 06:33:19;;;;;;;12.30;7.50;;;;;;;20.78;65.28;98417.39;106657;1278;22549;-76
2023/07/09 06:35:48;;;;;;;8.50;6.90;;;;;;;20.89;63.87;98415.53;106495;1278;22548;-76
2023/07/09 06:38:15;;;;;;;9.30;6.50;;;;;;;20.96;63.13;98412.89;106579;1278;22550;-76
2023/07/09 06:40:42;;;;;;;8.90;6.90;;;;;;;21.07;63.66;98413.30;106600;1277;25361;-76
2023/07/09 06:43:09;;;;;;;9.10;7.00;;;;;;;21.20;63.69;98411.02;106591;1277;22531;-76
2023/07/09 06:45:38;;;;;;;12.00;7.20;;;;;;;21.34;64.23;98415.51;106737;1278;25397;-76
2023/07/09 06:48:05;;;;;;;7.80;6.70;;;;;;;21.52;64.69;98412.45;106706;1277;24318;-76
2023/07/09 06:50:34;;;;;;;9.60;7.00;;;;;;;21.65;64.74;98414.63;106799;1278;22530;-76
2023/07/09 06:53:00;;;;;;;10.60;7.20;;;;;;;21.78;63.89;98416.30;106758;1277;22631;-76
2023/07/09 06:55:27;;;;;;;10.90;7.00;;;;;;;21.87;63.49;98411.39;106635;1261;24187;-76
2023/07/09 06:57:54;;;;;;;7.90;6.40;;;;;;;21.97;62.42;98414.67;106611;1278;23871;-76
2023/07/09 07:00:20;;;;;;;15.80;7.20;;;;;;;22.10;62.84;98411.77;106567;1278;25405;-76
2023/07/09 07:02:47;;;;;;;9.50;7.10;;;;;;;22.21;62.38;98410.13;106603;1278;22590;-76
2023/07/09 07:05:14;;;;;;;7.60;6.10;;;;;;;22.29;60.78;98407.61;106593;1278;23156;-75
2023/07/09 07:07:41;;;;;;;10.60;6.40;;;;;;;22.37;60.67;98409.10;106585;1278;23908;-76
2023/07/09 07:10:08;;;;;;;6.80;5.90;;;;;;;22.45;59.75;98407.12;106593;1277;25447;-76
2023/07/09 07:12:44;;;;;;;9.40;5.80;;;;;;;22.56;59.53;98407.31;106592;1277;25236;-76
2023/07/09 07:15:13;;;;;;;8.80;6.40;;;;;;;22.66;58.13;98409.46;106680;1278;24681;-76
2023/07/09 07:17:40;;;;;;;8.30;6.20;;;;;;;22.75;57.84;98408.02;106609;1278;26651;-76
2023/07/09 07:20:08;;;;;;;7.80;6.00;;;;;;;22.87;57.96;98406.27;106629;1277;22658;-76
2023/07/09 07:22:36;;;;;;;10.20;5.60;;;;;;;22.98;57.54;98409.46;106646;1278;24209;-76
2023/07/09 07:25:04;;;;;;;8.40;6.00;;;;;;;23.10;57.55;98408.08;106562;1278;24184;-76
2023/07/09 07:27:31;;;;;;;8.40;5.40;;;;;;;23.21;55.83;98406.13;106854;1278;24102;-76
2023/07/09 07:29:58;;;;;;;8.40;6.40;;;;;;;23.26;54.45;98402.89;106699;1277;22531;-76
2023/07/09 07:32:24;;;;;;;8.60;5.70;;;;;;;23.26;53.69;98399.98;106668;1278;22548;-77
2023/07/09 07:34:51;;;;;;;7.70;5.70;;;;;;;23.35;54.68;98402.70;106752;1277;24281;-76
2023/07/09 07:37:22;;;;;;;7.30;6.10;;;;;;;23.48;54.02;98403.04;106761;1278;25263;-76
2023/07/09 07:39:48;;;;;;;7.70;6.30;;;;;;;23.61;52.59;98403.67;106784;1277;22641;-76
2023/07/09 07:42:15;;;;;;;7.00;4.90;;;;;;;23.73;52.79;98400.33;106593;1278;23933;-76
2023/07/09 07:44:41;;;;;;;9.80;5.80;;;;;;;23.84;51.44;98400.46;106674;1278;25326;-76
2023/07/09 07:47:08;;;;;;;7.80;5.80;;;;;;;23.94;52.23;98398.46;106799;1278;22554;-76
2023/07/09 07:49:37;;;;;;;8.30;6.40;;;;;;;24.10;52.14;98398.72;106749;1278;22530;-78
2023/07/09 07:52:04;;;;;;;8.70;6.10;;;;;;;24.23;51.45;98401.63;106596;1278;22621;-77
2023/07/09 07:54:34;;;;;;;8.50;5.60;;;;;;;24.34;51.83;98400.63;106500;1278;24368;-76
2023/07/09 07:57:01;;;;;;;8.30;5.50;;;;;;;24.44;51.67;98402.09;106604;1278;22534;-76
2023/07/09 07:59:28;;;;;;;9.00;6.30;;;;;;;24.50;50.04;98400.66;106688;1277;25289;-77
2023/07/09 08:01:55;;;;;;;10.00;5.40;;;;;;;24.59;50.73;98397.04;106580;1278;22538;-75
2023/07/09 08:04:22;;;;;;;7.70;5.20;;;;;;;24.68;49.20;98402.01;106656;1277;22564;-76
2023/07/09 08:06:49;;;;;;;9.20;5.80;;;;;;;24.82;50.19;98400.86;106732;1277;22589;-76
2023/07/09 08:09:16;;;;;;;9.40;6.00;;;;;;;24.99;50.07;98397.37;106746;1278;24186;-76
2023/07/09 08:11:43;;;;;;;6.60;5.40;;;;;;;25.16;50.53;98394.91;106729;1277;22650;-76
2023/07/09 08:14:11;;;;;;;8.70;5.20;;;;;;;25.27;48.78;98395.94;106736;1278;25214;-77
2023/07/09 08:16:38;;;;;;;7.50;5.70;;;;;;;25.34;48.30;98393.14;106732;1278;22541;-76
2023/07/09 08:19:05;;;;;;;6.80;5.90;;;;;;;25.36;46.85;98392.99;106717;1277;22536;-76
2023/07/09 08:21:32;;;;;;;6.90;5.60;;;;;;;25.46;47.82;98387.87;106768;1278;22744;-76
2023/07/09 08:23:58;;;;;;;7.80;5.20;;;;;;;25.61;47.38;98389.12;106638;1277;22530;-76
2023/07/09 08:26:25;;;;;;;6.70;5.30;;;;;;;25.69;46.39;98384.73;106579;1278;25301;-76
2023/07/09 08:28:52;;;;;;;6.60;5.00;;;;;;;25.85;46.05;98385.07;106731;1278;22535;-75
2023/07/09 08:31:19;;;;;;;8.40;5.30;;;;;;;25.92;44.98;98381.23;106705;1278;22663;-75
2023/07/09 08:33:46;;;;;;;8.70;5.70;;;;;;;25.99;44.98;98376.66;106659;1278;25028;-76
2023/07/09 08:36:12;;;;;;;11.70;5.50;;;;;;;26.09;44.95;98378.77;106640;1278;25310;-76
2023/07/09 08:38:39;;;;;;;8.50;4.90;;;;;;;26.21;46.25;98375.79;106637;1278;22550;-76
2023/07/09 08:41:06;;;;;;;7.60;5.70;;;;;;;26.40;45.78;98377.73;106615;1278;25365;-76
2023/07/09 08:43:35;;;;;;;9.00;5.40;;;;;;;26.51;43.98;98377.98;106623;1278;22544;-76
2023/07/09 08:46:23;;;;;;;6.60;5.20;;;;;;;26.45;43.28;98380.88;106625;1277;22618;-76
2023/07/09 08:48:53;;;;;;;7.40;4.70;;;;;;;26.56;44.85;98378.70;106671;1278;22546;-76
2023/07/09 08:51:38;;;;;;;7.50;4.70;;;;;;;26.68;43.07;98381.88;106545;1277;22544;-76
2023/07/09 08:54:25;;;;;;;6.10;4.50;;;;;;;26.76;43.38;98380.70;106573;1277;22538;-77
2023/07/09 08:57:00;;;;;;;7.90;4.70;;;;;;;26.89;41.48;98374.21;106636;1278;26737;-76
2023/07/09 08:59:27;;;;;;;8.20;4.90;;;;;;;26.92;41.24;98376.98;106647;1266;24140;-75
2023/07/09 09:01:59;;;;;;;7.50;4.80;;;;;;;26.96;40.60;98376.50;106605;1278;22620;-76
2023/07/09 09:04:31;;;;;;;7.20;4.70;;;;;;;26.97;41.73;98376.02;106596;1278;25341;-76
2023/07/09 09:07:13;;;;;;;6.30;4.40;;;;;;;27.04;40.87;98377.04;106640;1278;22548;-76
2023/07/09 09:09:55;;;;;;;9.00;4.50;;;;;;;27.13;41.08;98375.70;106624;1278;25393;-76
2023/07/09 09:12:28;;;;;;;7.80;4.90;;;;;;;27.31;40.77;98376.31;106619;1278;22657;-77
2023/07/09 09:15:04;;;;;;;6.90;4.60;;;;;;;27.43;40.06;98377.08;106581;1278;24153;-76
2023/07/09 09:17:37;;;;;;;9.70;4.50;;;;;;;27.55;39.80;98380.75;106727;1277;24509;-77
2023/07/09 09:20:21;;;;;;;9.60;4.60;;;;;;;27.65;39.22;98378.66;106627;1278;22785;-77
2023/07/09 09:23:15;;;;;;;7.80;4.30;;;;;;;27.73;37.88;98373.64;106509;1278;24231;-76
2023/07/09 09:25:49;;;;;;;9.20;4.50;;;;;;;27.73;38.13;98372.53;106539;1278;22550;-76
2023/07/09 09:28:35;;;;;;;6.90;4.80;;;;;;;27.76;37.38;98372.14;106624;1277;22623;-76
2023/07/09 09:31:02;;;;;;;8.10;4.70;;;;;;;27.82;36.93;98373.31;106657;1277;23870;-76
2023/07/09 09:33:40;;;;;;;7.90;4.60;;;;;;;27.83;37.22;98371.02;106600;1278;22472;-76
2023/07/09 09:36:21;;;;;;;10.00;4.80;;;;;;;27.90;35.72;98379.92;106630;1277;22596;-76
2023/07/09 09:38:50;;;;;;;5.30;4.30;;;;;;;27.90;35.40;98376.68;106725;1277;24361;-75
2023/07/09 09:41:23;;;;;;;9.00;4.70;;;;;;;27.92;35.75;98379.44;106775;1277;22551;-77
2023/07/09 09:43:53;;;;;;;7.20;4.80;;;;;;;27.97;35.71;98378.31;106635;1278;25283;-76
2023/07/09 09:46:24;;;;;;;8.60;4.70;;;;;;;28.06;36.49;98376.21;106646;1277;25258;-76
2023/07/09 09:48:55;;;;;;;6.50;4.60;;;;;;;28.25;37.17;98371.83;106681;1278;22534;-77
2023/07/09 09:51:24;;;;;;;7.80;4.20;;;;;;;28.37;35.14;98374.84;106639;1277;25494;-76
2023/07/09 09:53:56;;;;;;;10.00;4.90;;;;;;;28.39;34.38;98378.54;106596;1277;22566;-76
2023/07/09 09:56:27;;;;;;;6.70;4.50;;;;;;;28.33;34.24;98373.20;106618;1277;22648;-75
2023/07/09 09:58:56;;;;;;;7.20;4.30;;;;;;;28.37;33.97;98371.81;106713;1277;22547;-76
2023/07/09 10:01:32;;;;;;;8.90;4.90;;;;;;;28.38;34.07;98373.48;106692;1278;25428;-77
2023/07/09 10:04:01;;;;;;;6.70;4.70;;;;;;;28.46;34.39;98372.20;106713;1256;22547;-77
2023/07/09 10:06:40;;;;;;;6.80;4.50;;;;;;;28.59;34.39;98366.23;106556;1278;24064;-78
2023/07/09 10:09:07;;;;;;;8.00;4.40;;;;;;;28.74;34.17;98364.21;106597;1278;22593;-76
2023/07/09 10:11:46;;;;;;;7.70;4.50;;;;;;;28.59;33.57;98362.27;106568;1278;22629;-76
2023/07/09 10:14:25;;;;;;;9.70;4.60;;;;;;;28.56;33.72;98366.34;106570;1277;22548;-76
2023/07/09 10:17:04;;;;;;;7.20;4.50;;;;;;;28.35;31.73;98370.02;106681;1278;23112;-76
2023/07/09 10:19:39;;;;;;;5.90;4.00;;;;;;;28.14;31.70;98368.49;106592;1277;22553;-75
2023/07/09 10:22:19;;;;;;;7.10;3.80;;;;;;;27.92;31.22;98372.02;106589;1278;22536;-76
2023/07/09 10:25:16;;;;;;;8.90;4.20;;;;;;;27.88;30.33;98367.59;106583;1278;24276;-75
2023/07/09 10:28:07;;;;;;;5.60;4.00;;;;;;;28.19;30.05;98363.45;106718;1277;22677;-76
2023/07/09 10:31:00;;;;;;;5.20;4.10;;;;;;;28.46;30.46;98364.98;106724;1278;22559;-76
2023/07/09 10:33:38;;;;;;;;;;;;;;;28.48;30.46;98367.66;106710;1278;22985;-76
2023/07/09 10:36:16;;;;;;;6.90;4.40;;;;;;;28.32;30.92;98363.71;106569;1278;22543;-76
2023/07/09 10:38:58;;;;;;;7.30;4.30;;;;;;;28.24;31.26;98355.84;106588;1278;25227;-77
2023/07/09 10:41:26;;;;;;;5.60;4.20;;;;;;;28.53;31.83;98358.36;106571;1278;22938;-76
2023/07/09 10:44:13;;;;;;;6.00;3.90;;;;;;;28.82;31.21;98353.13;106627;1277;24683;-77
2023/07/09 10:46:45;;;;;;;6.20;3.80;;;;;;;29.12;30.49;98350.83;106655;1278;22534;-76
2023/07/09 10:49:15;;;;;;;7.60;4.00;;;;;;;29.22;29.77;98347.77;106579;1278;22695;-77
2023/07/09 10:51:50;;;;;;;6.40;4.10;;;;;;;29.36;30.40;98351.43;106610;1278;22623;-76
2023/07/09 10:54:40;;;;;;;10.60;4.00;;;;;;;29.55;30.19;98351.70;106541;1278;24087;-75
2023/07/09 10:57:42;;;;;;;8.30;4.20;;;;;;;29.69;29.22;98347.27;106662;1278;22623;-75
2023/07/09 11:00:18;;;;;;;8.40;4.30;;;;;;;29.69;29.16;98355.84;106515;1277;22531;-76
2023/07/09 11:02:51;;;;;;;6.20;4.30;;;;;;;29.64;28.97;98353.34;106546;1278;25414;-76
2023/07/09 11:05:18;;;;;;;5.80;3.90;;;;;;;29.57;28.56;98349.76;106833;1266;22638;-76
2023/07/09 11:08:13;;;;;;;8.60;4.20;;;;;;;29.65;28.79;98348.89;106567;1277;22695;-76
2023/07/09 11:10:51;;;;;;;5.40;3.80;;;;;;;29.87;28.77;98347.51;106638;1277;22558;-76
2023/07/09 11:13:44;;;;;;;8.20;3.60;;;;;;;29.97;28.05;98346.90;106765;1277;24233;-76
2023/07/09 11:16:34;;;;;;;5.80;3.60;;;;;;;30.01;27.19;98343.98;106727;1277;22533;-76
2023/07/09 11:19:05;;;;;;;4.60;3.30;;;;;;;30.01;27.67;98339.62;106591;1278;25414;-77
2023/07/09 11:21:32;;;;;;;4.50;3.50;;;;;;;30.14;27.67;98336.34;106846;1278;22534;-77
2023/07/09 11:24:00;;;;;;;8.50;3.90;;;;;;;30.17;27.00;98335.83;106661;1278;25290;-77
2023/07/09 11:26:30;;;;;;;4.80;3.80;;;;;;;30.20;26.55;98338.02;106627;1278;22865;-77
2023/07/09 11:29:06;;;;;;;5.80;3.70;;;;;;;30.22;26.69;98333.13;106617;1278;22536;-76
2023/07/09 11:31:37;;;;;;;5.80;3.80;;;;;;;30.27;26.07;98335.70;106551;1278;24407;-76
2023/07/09 11:34:06;;;;;;;7.80;3.70;;;;;;;30.22;26.45;98334.25;106605;1278;25529;-76
2023/07/09 11:36:45;;;;;;;5.90;3.90;;;;;;;30.23;26.45;98326.05;106603;1278;22547;-75